createdAt,value
2019-01-10T00:02:13.848Z,4.04
2019-01-10T00:04:41.403Z,3.59
2019-01-10T00:07:08.910Z,3.78
2019-01-10T00:09:36.365Z,3.56
2019-01-10T00:12:03.857Z,3.22
2019-01-10T00:14:34.968Z,3.56
2019-01-10T00:17:02.566Z,3.64
2019-01-10T00:19:30.231Z,3.17
2019-01-10T00:21:57.849Z,3.63
2019-01-10T00:24:25.330Z,3.41
2019-01-10T00:26:52.802Z,3.23
2019-01-10T00:29:20.274Z,3.20
2019-01-10T00:31:47.720Z,3.37
2019-01-10T00:34:15.188Z,3.37
2019-01-10T00:36:42.636Z,3.50
2019-01-10T00:39:10.898Z,3.58
2019-01-10T00:41:39.687Z,3.76
2019-01-10T00:44:07.159Z,3.94
2019-01-10T00:46:34.598Z,3.82
2019-01-10T00:49:02.139Z,3.94
2019-01-10T00:51:29.578Z,3.99
2019-01-10T00:53:57.290Z,3.96
2019-01-10T00:56:24.699Z,3.95
2019-01-10T00:58:52.826Z,3.94
2019-01-10T01:01:20.327Z,3.40
2019-01-10T01:03:48.029Z,3.77
2019-01-10T01:06:15.756Z,3.81
2019-01-10T01:08:43.150Z,3.77
2019-01-10T01:11:12.408Z,3.15
2019-01-10T01:13:39.900Z,3.77
2019-01-10T01:16:07.393Z,3.06
2019-01-10T01:18:34.874Z,3.48
2019-01-10T01:21:02.330Z,3.28
2019-01-10T01:23:29.863Z,3.48
2019-01-10T01:25:57.338Z,3.61
2019-01-10T01:28:24.885Z,3.64
2019-01-10T01:30:52.339Z,3.63
2019-01-10T01:33:19.758Z,3.62
2019-01-10T01:35:47.246Z,3.70
2019-01-10T01:38:14.718Z,3.62
2019-01-10T01:40:42.180Z,3.65
2019-01-10T01:43:09.679Z,3.49
2019-01-10T01:45:38.526Z,3.79
2019-01-10T01:48:06.142Z,3.82
2019-01-10T01:50:33.634Z,3.58
2019-01-10T01:53:01.113Z,3.67
2019-01-10T01:55:28.558Z,3.83
2019-01-10T01:57:56.028Z,3.88
2019-01-10T02:00:23.473Z,3.95
2019-01-10T02:02:50.946Z,3.69
2019-01-10T02:05:18.452Z,3.95
2019-01-10T02:07:45.909Z,4.06
2019-01-10T02:10:14.098Z,4.11
2019-01-10T02:12:41.557Z,4.23
2019-01-10T02:15:09.016Z,3.72
2019-01-10T02:17:36.466Z,4.06
2019-01-10T02:20:04.139Z,4.15
2019-01-10T02:22:31.583Z,4.25
2019-01-10T02:24:59.035Z,4.26
2019-01-10T02:27:26.503Z,4.24
2019-01-10T02:29:54.999Z,4.28
2019-01-10T02:32:22.488Z,4.34
2019-01-10T02:34:49.927Z,4.42
2019-01-10T02:37:17.397Z,4.30
2019-01-10T02:39:44.892Z,4.40
2019-01-10T02:42:12.305Z,4.46
2019-01-10T02:44:39.784Z,4.42
2019-01-10T02:47:07.226Z,4.44
2019-01-10T02:49:34.700Z,4.28
2019-01-10T02:52:02.223Z,4.35
2019-01-10T02:54:29.695Z,4.43
2019-01-10T02:56:57.175Z,4.52
2019-01-10T02:59:25.303Z,4.48
2019-01-10T03:04:26.501Z,4.42
2019-01-10T03:06:53.995Z,4.40
2019-01-10T03:09:23.175Z,4.38
2019-01-10T03:11:48.912Z,4.40
2019-01-10T03:14:16.382Z,4.50
2019-01-10T03:16:43.829Z,4.54
2019-01-10T03:19:11.253Z,4.48
2019-01-10T03:21:40.451Z,4.47
2019-01-10T03:24:08.031Z,4.34
2019-01-10T03:26:35.531Z,4.45
2019-01-10T03:29:02.991Z,4.38
2019-01-10T03:31:31.067Z,4.37
2019-01-10T03:33:58.534Z,4.37
2019-01-10T03:36:26.009Z,4.39
2019-01-10T03:38:53.590Z,4.26
2019-01-10T03:41:21.042Z,4.30
2019-01-10T03:43:48.506Z,4.03
2019-01-10T03:46:15.956Z,4.22
2019-01-10T03:48:43.411Z,4.09
2019-01-10T03:51:10.884Z,4.20
2019-01-10T03:53:38.492Z,4.27
2019-01-10T03:56:05.913Z,4.22
2019-01-10T03:58:33.393Z,4.09
2019-01-10T04:01:00.844Z,4.19
2019-01-10T04:03:28.302Z,4.21
2019-01-10T04:05:55.747Z,4.16
2019-01-10T04:08:23.211Z,4.28
2019-01-10T04:10:50.641Z,4.20
2019-01-10T04:13:18.108Z,4.25
2019-01-10T04:15:45.562Z,4.23
2019-01-10T04:18:13.045Z,4.11
2019-01-10T04:20:40.471Z,4.07
2019-01-10T04:23:07.932Z,4.18
2019-01-10T04:25:35.383Z,4.14
2019-01-10T04:28:02.835Z,4.15
2019-01-10T04:30:30.307Z,4.10
2019-01-10T04:32:57.806Z,3.81
2019-01-10T04:35:25.974Z,4.07
2019-01-10T04:37:53.468Z,4.11
2019-01-10T04:40:20.899Z,4.05
2019-01-10T04:42:48.351Z,4.20
2019-01-10T04:45:15.841Z,4.22
2019-01-10T04:47:43.308Z,4.23
2019-01-10T04:50:10.792Z,4.17
2019-01-10T04:52:39.148Z,4.29
2019-01-10T04:55:06.634Z,4.24
2019-01-10T04:57:34.078Z,4.33
2019-01-10T05:00:01.662Z,4.29
2019-01-10T05:02:29.025Z,4.35
2019-01-10T05:04:56.480Z,4.34
2019-01-10T05:07:23.961Z,4.31
2019-01-10T05:09:51.419Z,4.38
2019-01-10T05:12:18.877Z,4.38
2019-01-10T05:14:46.336Z,4.36
2019-01-10T05:17:15.817Z,4.38
2019-01-10T05:19:43.337Z,4.39
2019-01-10T05:22:10.788Z,4.24
2019-01-10T05:24:38.204Z,4.36
2019-01-10T05:27:05.678Z,4.22
2019-01-10T05:29:33.130Z,4.26
2019-01-10T05:32:02.544Z,4.31
2019-01-10T05:34:28.051Z,4.24
2019-01-10T05:36:56.551Z,4.34
2019-01-10T05:39:24.006Z,4.24
2019-01-10T05:41:51.500Z,4.30
2019-01-10T05:44:26.497Z,4.30
2019-01-10T05:46:48.630Z,4.34
2019-01-10T05:49:13.934Z,4.29
2019-01-10T05:51:42.234Z,4.38
2019-01-10T05:54:09.813Z,4.42
2019-01-10T05:56:37.291Z,4.47
2019-01-10T05:59:04.732Z,4.35
2019-01-10T06:01:32.199Z,4.41
2019-01-10T06:03:59.618Z,4.26
2019-01-10T06:06:27.052Z,4.35
2019-01-10T06:08:54.510Z,4.36
2019-01-10T06:11:21.957Z,4.26
2019-01-10T06:13:49.425Z,4.34
2019-01-10T06:16:16.849Z,4.34
2019-01-10T06:18:44.304Z,4.31
2019-01-10T06:21:11.756Z,3.75
2019-01-10T06:23:39.504Z,4.00
2019-01-10T06:26:06.962Z,4.15
2019-01-10T06:28:34.412Z,4.25
2019-01-10T06:31:01.855Z,4.03
2019-01-10T06:33:29.324Z,4.07
2019-01-10T06:35:57.140Z,4.12
2019-01-10T06:38:25.888Z,4.22
2019-01-10T06:40:53.419Z,4.06
2019-01-10T06:43:20.869Z,4.15
2019-01-10T06:45:48.366Z,4.04
2019-01-10T06:48:15.903Z,3.94
2019-01-10T06:50:43.355Z,4.10
2019-01-10T06:53:10.789Z,4.22
2019-01-10T06:55:38.219Z,4.15
2019-01-10T06:58:05.710Z,4.14
2019-01-10T07:00:34.576Z,4.20
2019-01-10T07:03:02.090Z,4.25
2019-01-10T07:05:29.568Z,4.12
2019-01-10T07:07:57.506Z,4.02
2019-01-10T07:10:25.167Z,4.07
2019-01-10T07:12:53.280Z,3.94
2019-01-10T07:15:20.737Z,4.09
2019-01-10T07:17:48.233Z,4.10
2019-01-10T07:20:15.688Z,4.11
2019-01-10T07:22:43.363Z,4.09
2019-01-10T07:25:10.863Z,4.22
2019-01-10T07:27:38.986Z,4.15
2019-01-10T07:30:06.479Z,4.02
2019-01-10T07:32:33.917Z,4.09
2019-01-10T07:35:01.893Z,4.15
2019-01-10T07:37:29.408Z,4.23
2019-01-10T07:39:57.615Z,4.20
2019-01-10T07:42:26.729Z,4.30
2019-01-10T07:45:02.461Z,4.06
2019-01-10T07:47:21.917Z,4.11
2019-01-10T07:49:49.435Z,4.13
2019-01-10T07:52:17.009Z,4.20
2019-01-10T07:54:45.049Z,4.25
2019-01-10T07:57:12.558Z,4.21
2019-01-10T07:59:40.031Z,4.18
2019-01-10T08:02:07.479Z,4.19
2019-01-10T08:04:34.926Z,4.18
2019-01-10T08:07:02.442Z,4.15
2019-01-10T08:09:29.943Z,4.20
2019-01-10T08:12:00.548Z,4.19
2019-01-10T08:14:27.136Z,4.11
2019-01-10T08:16:54.683Z,4.17
2019-01-10T08:19:23.068Z,4.16
2019-01-10T08:21:50.581Z,4.18
2019-01-10T08:24:18.017Z,4.17
2019-01-10T08:26:45.485Z,4.21
2019-01-10T08:29:12.948Z,4.16
2019-01-10T08:31:40.517Z,4.17
2019-01-10T08:34:07.976Z,4.24
2019-01-10T08:36:35.435Z,4.09
2019-01-10T08:39:02.847Z,4.13
2019-01-10T08:41:30.390Z,4.24
2019-01-10T08:43:58.186Z,4.18
2019-01-10T08:46:26.547Z,4.15
2019-01-10T08:48:53.983Z,4.22
2019-01-10T08:51:21.478Z,3.81
2019-01-10T08:53:53.861Z,4.10
2019-01-10T08:56:16.583Z,4.17
2019-01-10T08:58:44.088Z,4.25
2019-01-10T09:01:11.670Z,4.24
2019-01-10T09:03:39.697Z,3.98
2019-01-10T09:06:08.247Z,4.20
2019-01-10T09:08:34.697Z,4.24
2019-01-10T09:11:02.189Z,4.27
2019-01-10T09:13:29.731Z,4.28
2019-01-10T09:15:57.215Z,4.27
2019-01-10T09:18:24.699Z,4.36
2019-01-10T09:20:52.299Z,4.37
2019-01-10T09:23:20.697Z,4.44
2019-01-10T09:25:48.676Z,4.45
2019-01-10T09:28:16.234Z,4.30
2019-01-10T09:30:43.779Z,4.30
2019-01-10T09:33:12.282Z,4.22
2019-01-10T09:35:39.728Z,4.32
2019-01-10T09:38:07.261Z,4.49
2019-01-10T09:40:34.750Z,4.52
2019-01-10T09:43:02.239Z,4.44
2019-01-10T09:45:29.695Z,4.55
2019-01-10T09:47:57.207Z,4.55
2019-01-10T09:50:24.682Z,4.61
2019-01-10T09:52:53.108Z,3.96
2019-01-10T09:55:20.544Z,3.69
2019-01-10T09:57:48.087Z,4.13
2019-01-10T10:00:15.621Z,4.03
2019-01-10T10:02:43.090Z,4.31
2019-01-10T10:05:10.549Z,4.41
2019-01-10T10:07:38.091Z,3.87
2019-01-10T10:10:06.698Z,3.39
2019-01-10T10:12:34.030Z,3.87
2019-01-10T10:15:01.606Z,3.09
2019-01-10T10:17:30.387Z,3.16
2019-01-10T10:19:57.952Z,3.56
2019-01-10T10:22:26.219Z,3.39
2019-01-10T10:24:53.745Z,3.19
2019-01-10T10:27:21.197Z,3.00
2019-01-10T10:29:48.653Z,3.52
2019-01-10T10:32:16.129Z,3.70
2019-01-10T10:34:43.594Z,3.93
2019-01-10T10:37:11.150Z,3.36
2019-01-10T10:39:39.565Z,3.47
2019-01-10T10:42:07.092Z,3.78
2019-01-10T10:44:34.545Z,4.07
2019-01-10T10:47:02.391Z,4.26
2019-01-10T10:49:29.543Z,4.28
2019-01-10T10:51:57.213Z,4.37
2019-01-10T10:54:24.637Z,3.88
2019-01-10T10:56:52.120Z,3.95
2019-01-10T10:59:19.621Z,4.23
2019-01-10T11:01:47.063Z,4.39
2019-01-10T11:04:14.526Z,4.47
2019-01-10T11:06:42.077Z,4.60
2019-01-10T11:09:09.698Z,4.01
2019-01-10T11:11:37.020Z,4.37
2019-01-10T11:14:04.497Z,3.93
2019-01-10T11:16:32.038Z,4.37
2019-01-10T11:18:59.672Z,4.40
2019-01-10T11:21:27.186Z,4.23
2019-01-10T11:23:54.609Z,4.31
2019-01-10T11:26:22.977Z,4.43
2019-01-10T11:28:50.512Z,4.54
2019-01-10T11:31:18.063Z,4.56
2019-01-10T11:33:45.527Z,4.61
2019-01-10T11:36:12.994Z,4.73
2019-01-10T11:38:40.726Z,4.42
2019-01-10T11:41:08.239Z,3.77
2019-01-10T11:43:35.913Z,3.99
2019-01-10T11:46:03.415Z,3.64
2019-01-10T11:48:30.897Z,3.66
2019-01-10T11:50:58.482Z,4.07
2019-01-10T11:53:26.018Z,4.35
2019-01-10T11:55:53.530Z,3.54
2019-01-10T11:58:21.083Z,4.13
2019-01-10T12:00:49.921Z,2.99
2019-01-10T12:03:17.462Z,3.41
2019-01-10T12:05:47.852Z,3.32
2019-01-10T12:08:12.505Z,3.72
2019-01-10T12:10:39.985Z,4.05
2019-01-10T12:13:07.714Z,4.25
2019-01-10T12:15:36.229Z,3.50
2019-01-10T12:18:03.773Z,3.63
2019-01-10T12:20:31.253Z,3.18
2019-01-10T12:22:58.749Z,2.88
2019-01-10T12:25:26.411Z,3.36
2019-01-10T12:27:54.002Z,3.80
2019-01-10T12:30:21.498Z,3.81
2019-01-10T12:32:49.038Z,3.38
2019-01-10T12:35:16.523Z,3.74
2019-01-10T12:37:44.244Z,3.82
2019-01-10T12:40:11.774Z,3.72
2019-01-10T12:42:40.191Z,3.74
2019-01-10T12:45:08.482Z,3.87
2019-01-10T12:47:36.058Z,3.70
2019-01-10T12:50:03.588Z,3.15
2019-01-10T12:52:35.240Z,3.64
2019-01-10T12:54:58.430Z,4.08
2019-01-10T12:57:26.816Z,4.17
2019-01-10T12:59:54.245Z,3.49
2019-01-10T13:02:21.902Z,3.52
2019-01-10T13:04:49.360Z,3.75
2019-01-10T13:07:16.821Z,3.47
2019-01-10T13:09:44.324Z,3.83
2019-01-10T13:12:11.823Z,3.67
2019-01-10T13:14:39.277Z,3.93
2019-01-10T13:17:07.710Z,3.61
2019-01-10T13:19:35.307Z,3.87
2019-01-10T13:22:02.768Z,3.87
2019-01-10T13:24:30.688Z,3.95
2019-01-10T13:26:58.182Z,3.76
2019-01-10T13:29:25.817Z,3.35
2019-01-10T13:31:53.278Z,3.85
2019-01-10T13:34:20.820Z,4.26
2019-01-10T13:36:49.932Z,4.17
2019-01-10T13:39:17.424Z,4.39
2019-01-10T13:41:44.878Z,4.51
2019-01-10T13:44:12.316Z,4.20
2019-01-10T13:46:39.800Z,3.99
2019-01-10T13:49:07.282Z,4.43
2019-01-10T13:51:34.755Z,4.31
2019-01-10T13:54:02.214Z,4.51
2019-01-10T13:56:29.727Z,4.61
2019-01-10T13:58:57.188Z,4.45
2019-01-10T14:01:25.431Z,4.68
2019-01-10T14:03:52.875Z,4.58
2019-01-10T14:06:20.342Z,4.68
2019-01-10T14:08:47.872Z,4.50
2019-01-10T14:11:15.355Z,3.98
2019-01-10T14:13:44.095Z,4.17
2019-01-10T14:16:12.530Z,4.37
2019-01-10T14:18:40.106Z,4.58
2019-01-10T14:21:08.189Z,4.73
2019-01-10T14:23:35.677Z,4.83
2019-01-10T14:26:03.154Z,4.83
2019-01-10T14:28:31.714Z,4.89
2019-01-10T14:30:59.721Z,4.91
2019-01-10T14:33:27.449Z,5.03
2019-01-10T14:35:54.956Z,4.67
2019-01-10T14:38:23.153Z,4.01
2019-01-10T14:40:50.693Z,4.58
2019-01-10T14:43:18.116Z,4.07
2019-01-10T14:45:45.595Z,4.22
2019-01-10T14:48:13.112Z,3.93
2019-01-10T14:50:42.151Z,4.35
2019-01-10T14:53:09.629Z,4.11
2019-01-10T14:55:37.104Z,3.64
2019-01-10T14:58:06.638Z,4.05
2019-01-10T15:00:34.434Z,4.24
2019-01-10T15:03:01.953Z,4.45
2019-01-10T15:05:34.352Z,3.88
2019-01-10T15:07:57.609Z,4.22
2019-01-10T15:10:26.760Z,4.48
2019-01-10T15:12:54.430Z,4.65
2019-01-10T15:15:21.947Z,4.70
2019-01-10T15:17:49.507Z,4.67
2019-01-10T15:20:18.777Z,4.78
2019-01-10T15:22:46.263Z,4.81
2019-01-10T15:25:14.602Z,4.65
2019-01-10T15:27:42.052Z,4.61
2019-01-10T15:30:11.268Z,4.37
2019-01-10T15:32:38.711Z,4.57
2019-01-10T15:35:06.182Z,4.63
2019-01-10T15:37:33.716Z,4.68
2019-01-10T15:40:01.825Z,4.50
2019-01-10T15:42:29.327Z,4.43
2019-01-10T15:44:58.232Z,4.57
2019-01-10T15:47:25.763Z,4.29
2019-01-10T15:49:53.303Z,4.47
2019-01-10T15:52:20.752Z,4.56
2019-01-10T15:54:48.247Z,4.42
2019-01-10T15:57:15.718Z,4.42
2019-01-10T15:59:43.187Z,4.39
2019-01-10T16:02:10.698Z,4.38
2019-01-10T16:04:38.160Z,4.27
2019-01-10T16:07:05.647Z,4.34
2019-01-10T16:09:33.149Z,4.39
2019-01-10T16:12:00.739Z,4.20
2019-01-10T16:14:28.181Z,3.98
2019-01-10T16:16:56.372Z,4.05
2019-01-10T16:19:26.035Z,4.18
2019-01-10T16:21:53.576Z,4.06
2019-01-10T16:24:21.038Z,4.06
2019-01-10T16:26:48.500Z,4.23
2019-01-10T16:29:15.949Z,4.23
2019-01-10T16:31:43.416Z,4.12
2019-01-10T16:34:10.852Z,4.17
2019-01-10T16:36:38.278Z,4.29
2019-01-10T16:39:05.739Z,4.36
2019-01-10T16:41:33.161Z,4.07
2019-01-10T16:44:01.170Z,4.32
2019-01-10T16:46:28.624Z,4.20
2019-01-10T16:48:56.110Z,3.98
2019-01-10T16:51:23.562Z,3.89
2019-01-10T16:53:52.445Z,3.89
2019-01-10T16:56:20.497Z,3.77
2019-01-10T16:58:47.907Z,3.75
2019-01-10T17:01:15.375Z,3.74
2019-01-10T17:03:42.866Z,3.70
2019-01-10T17:06:10.312Z,3.84
2019-01-10T17:08:37.741Z,3.55
2019-01-10T17:11:05.200Z,3.37
2019-01-10T17:13:32.932Z,3.46
2019-01-10T17:16:00.390Z,3.69
2019-01-10T17:18:27.846Z,3.93
2019-01-10T17:20:55.279Z,4.05
2019-01-10T17:23:22.732Z,4.01
2019-01-10T17:25:50.170Z,4.06
2019-01-10T17:28:17.630Z,3.96
2019-01-10T17:30:45.090Z,3.96
2019-01-10T17:33:12.541Z,3.85
2019-01-10T17:35:39.990Z,3.95
2019-01-10T17:38:08.095Z,4.06
2019-01-10T17:40:35.568Z,4.12
2019-01-10T17:43:03.088Z,3.94
2019-01-10T17:45:30.609Z,3.87
2019-01-10T17:47:58.087Z,3.73
2019-01-10T17:50:25.534Z,3.83
2019-01-10T17:52:52.984Z,3.87
2019-01-10T17:55:20.435Z,3.76
2019-01-10T17:57:47.894Z,3.80
2019-01-10T18:00:21.897Z,3.74
2019-01-10T18:02:49.328Z,3.75
2019-01-10T18:05:16.801Z,3.93
2019-01-10T18:07:44.275Z,4.01
2019-01-10T18:10:11.800Z,3.97
2019-01-10T18:12:39.292Z,4.12
2019-01-10T18:15:06.763Z,4.06
2019-01-10T18:17:34.206Z,4.25
2019-01-10T18:20:01.675Z,4.18
2019-01-10T18:22:29.141Z,4.18
2019-01-10T18:24:56.681Z,4.27
2019-01-10T18:27:24.107Z,4.30
2019-01-10T18:29:53.095Z,4.18
2019-01-10T18:32:20.551Z,4.02
2019-01-10T18:34:47.989Z,4.08
2019-01-10T18:37:15.472Z,3.78
2019-01-10T18:39:42.912Z,3.46
2019-01-10T18:42:10.359Z,3.37
2019-01-10T18:44:37.868Z,3.13
2019-01-10T18:47:05.330Z,3.00
2019-01-10T18:49:33.614Z,3.05
2019-01-10T18:52:01.096Z,3.17
2019-01-10T18:54:28.608Z,3.13
2019-01-10T18:56:56.053Z,3.11
2019-01-10T18:59:23.493Z,3.24
2019-01-10T19:01:50.986Z,3.06
2019-01-10T19:04:19.404Z,3.08
2019-01-10T19:06:46.846Z,2.86
2019-01-10T19:09:14.601Z,3.06
2019-01-10T19:11:42.081Z,2.94
2019-01-10T19:14:09.603Z,2.91
2019-01-10T19:16:37.099Z,2.95
2019-01-10T19:19:04.559Z,3.10
2019-01-10T19:21:32.044Z,3.15
2019-01-10T19:23:59.852Z,3.22
2019-01-10T19:26:27.809Z,3.13
2019-01-10T19:28:55.356Z,3.38
2019-01-10T19:31:22.779Z,3.29
2019-01-10T19:33:50.243Z,3.39
2019-01-10T19:36:17.758Z,3.23
2019-01-10T19:38:46.402Z,3.27
2019-01-10T19:41:13.849Z,3.29
2019-01-10T19:43:41.316Z,3.16
2019-01-10T19:46:08.829Z,2.97
2019-01-10T19:48:36.300Z,3.15
2019-01-10T19:51:04.293Z,3.05
2019-01-10T19:53:31.746Z,3.12
2019-01-10T19:55:59.166Z,3.06
2019-01-10T19:58:26.630Z,3.08
2019-01-10T20:00:54.075Z,3.06
2019-01-10T20:03:21.539Z,3.25
2019-01-10T20:05:48.969Z,3.24
2019-01-10T20:08:16.469Z,3.28
2019-01-10T20:10:43.928Z,3.26
2019-01-10T20:13:11.358Z,3.23
2019-01-10T20:15:39.722Z,3.19
2019-01-10T20:18:07.198Z,3.42
2019-01-10T20:20:35.586Z,3.51
2019-01-10T20:23:02.778Z,3.51
2019-01-10T20:25:30.233Z,3.34
2019-01-10T20:28:00.016Z,3.33
2019-01-10T20:30:27.488Z,3.45
2019-01-10T20:32:54.960Z,3.51
2019-01-10T20:35:22.377Z,3.28
2019-01-10T20:37:49.881Z,3.45
2019-01-10T20:40:17.340Z,3.55
2019-01-10T20:42:46.019Z,3.51
2019-01-10T20:45:13.500Z,3.62
2019-01-10T20:47:41.090Z,3.64
2019-01-10T20:50:12.233Z,3.42
2019-01-10T20:52:39.651Z,3.65
2019-01-10T20:55:07.897Z,3.53
2019-01-10T20:57:35.397Z,3.58
2019-01-10T21:00:02.867Z,3.68
2019-01-10T21:02:30.299Z,3.74
2019-01-10T21:04:57.732Z,3.91
2019-01-10T21:07:25.171Z,3.96
2019-01-10T21:09:52.606Z,3.98
2019-01-10T21:12:20.056Z,3.87
2019-01-10T21:14:47.515Z,3.77
2019-01-10T21:17:14.967Z,3.84
2019-01-10T21:19:42.887Z,3.90
2019-01-10T21:22:10.370Z,3.97
2019-01-10T21:24:37.821Z,3.81
2019-01-10T21:27:05.284Z,3.78
2019-01-10T21:29:32.761Z,3.85
2019-01-10T21:32:00.272Z,3.86
2019-01-10T21:34:27.767Z,3.79
2019-01-10T21:36:55.622Z,3.77
2019-01-10T21:39:22.808Z,3.41
2019-01-10T21:41:50.571Z,3.24
2019-01-10T21:44:18.003Z,3.53
2019-01-10T21:46:45.459Z,3.68
2019-01-10T21:49:12.919Z,3.81
2019-01-10T21:51:40.376Z,3.72
2019-01-10T21:54:07.862Z,3.93
2019-01-10T21:56:35.456Z,3.69
2019-01-10T21:59:02.928Z,3.78
2019-01-10T22:01:30.363Z,3.69
2019-01-10T22:03:57.877Z,3.87
2019-01-10T22:06:25.291Z,3.83
2019-01-10T22:08:52.769Z,3.71
2019-01-10T22:11:20.213Z,3.85
2019-01-10T22:13:48.762Z,3.88
2019-01-10T22:16:16.226Z,3.70
2019-01-10T22:18:43.678Z,3.72
2019-01-10T22:21:11.149Z,3.59
2019-01-10T22:23:38.617Z,3.61
2019-01-10T22:26:06.157Z,3.47
2019-01-10T22:28:33.595Z,3.36
2019-01-10T22:31:01.029Z,3.64
2019-01-10T22:33:29.364Z,3.77
2019-01-10T22:35:58.012Z,3.68
2019-01-10T22:38:25.499Z,3.55
2019-01-10T22:40:52.984Z,3.75
2019-01-10T22:43:20.463Z,3.73
2019-01-10T22:45:47.983Z,3.88
2019-01-10T22:48:15.447Z,3.62
2019-01-10T22:50:42.881Z,3.55
2019-01-10T22:53:10.384Z,3.12
2019-01-10T22:55:39.221Z,3.35
2019-01-10T22:58:06.753Z,3.24
2019-01-10T23:00:41.651Z,3.49
2019-01-10T23:03:09.127Z,3.41
2019-01-10T23:05:37.417Z,3.52
2019-01-10T23:08:04.853Z,3.73
2019-01-10T23:10:32.370Z,3.55
2019-01-10T23:12:59.839Z,3.30
2019-01-10T23:15:27.929Z,3.04
2019-01-10T23:17:55.357Z,2.89
2019-01-10T23:20:22.818Z,2.84
2019-01-10T23:22:51.782Z,2.83
2019-01-10T23:25:19.326Z,2.78
2019-01-10T23:27:46.799Z,2.77
2019-01-10T23:30:14.275Z,2.73
2019-01-10T23:32:41.742Z,2.35
2019-01-10T23:35:09.168Z,2.80
2019-01-10T23:37:36.730Z,2.48
2019-01-10T23:40:04.175Z,2.41
2019-01-10T23:42:31.649Z,2.46
2019-01-10T23:44:59.376Z,2.36
2019-01-10T23:47:26.841Z,2.37
2019-01-10T23:49:55.453Z,2.24
2019-01-10T23:52:22.891Z,2.30
2019-01-10T23:54:50.363Z,2.09
2019-01-10T23:57:18.705Z,2.35
2019-01-10T23:59:48.371Z,2.39
